sensor_id;sensor_type;location;lat;lon;timestamp;pressure;altitude;pressure_sealevel;temperature;humidity
17254;BME280;32542;52.832;13.816;2023-04-22T00:02:46;101517.50;;;21.91;42.88
17254;BME280;32542;52.832;13.816;2023-04-22T00:05:49;101514.69;;;21.94;42.83
17254;BME280;32542;52.832;13.816;2023-04-22T00:08:54;101512.09;;;21.92;42.92
17254;BME280;32542;52.832;13.816;2023-04-22T00:11:57;101510.41;;;21.90;43.14
17254;BME280;32542;52.832;13.816;2023-04-22T00:15:00;101509.66;;;21.86;43.27
17254;BME280;32542;52.832;13.816;2023-04-22T00:18:03;101508.06;;;21.82;43.37
17254;BME280;32542;52.832;13.816;2023-04-22T00:21:07;101499.34;;;21.77;43.53
17254;BME280;32542;52.832;13.816;2023-04-22T00:24:12;101502.00;;;21.77;43.60
17254;BME280;32542;52.832;13.816;2023-04-22T00:27:15;101502.09;;;21.74;43.64
17254;BME280;32542;52.832;13.816;2023-04-22T00:30:18;101501.28;;;21.73;43.79
17254;BME280;32542;52.832;13.816;2023-04-22T00:33:20;101496.78;;;21.74;43.84
17254;BME280;32542;52.832;13.816;2023-04-22T00:36:24;101496.84;;;21.72;43.83
17254;BME280;32542;52.832;13.816;2023-04-22T00:39:30;101494.25;;;21.71;43.83
17254;BME280;32542;52.832;13.816;2023-04-22T00:42:33;101488.13;;;21.69;43.91
17254;BME280;32542;52.832;13.816;2023-04-22T00:45:36;101484.56;;;21.68;43.99
17254;BME280;32542;52.832;13.816;2023-04-22T00:48:40;101484.66;;;21.67;43.96
17254;BME280;32542;52.832;13.816;2023-04-22T00:51:43;101484.69;;;21.65;44.18
17254;BME280;32542;52.832;13.816;2023-04-22T00:54:47;101484.75;;;21.64;44.21
17254;BME280;32542;52.832;13.816;2023-04-22T00:57:51;101477.75;;;21.61;44.20
17254;BME280;32542;52.832;13.816;2023-04-22T01:00:54;101480.38;;;21.63;44.28
17254;BME280;32542;52.832;13.816;2023-04-22T01:03:57;101486.63;;;21.62;44.16
17254;BME280;32542;52.832;13.816;2023-04-22T01:07:02;101488.47;;;21.60;44.29
17254;BME280;32542;52.832;13.816;2023-04-22T01:10:07;101474.28;;;21.59;44.26
17254;BME280;32542;52.832;13.816;2023-04-22T01:13:10;101475.16;;;21.60;44.26
17254;BME280;32542;52.832;13.816;2023-04-22T01:16:13;101483.22;;;21.58;44.43
17254;BME280;32542;52.832;13.816;2023-04-22T01:19:17;101474.41;;;21.56;44.30
17254;BME280;32542;52.832;13.816;2023-04-22T01:22:21;101470.88;;;21.56;44.42
17254;BME280;32542;52.832;13.816;2023-04-22T01:25:25;101473.53;;;21.56;44.42
17254;BME280;32542;52.832;13.816;2023-04-22T01:28:29;101468.22;;;21.56;44.47
17254;BME280;32542;52.832;13.816;2023-04-22T01:31:33;101470.94;;;21.54;44.42
17254;BME280;32542;52.832;13.816;2023-04-22T01:34:37;101474.41;;;21.56;44.48
17254;BME280;32542;52.832;13.816;2023-04-22T01:37:40;101462.88;;;21.56;44.54
17254;BME280;32542;52.832;13.816;2023-04-22T01:40:45;101469.88;;;21.58;44.46
17254;BME280;32542;52.832;13.816;2023-04-22T01:43:48;101468.94;;;21.59;44.40
17254;BME280;32542;52.832;13.816;2023-04-22T01:46:51;101468.06;;;21.59;44.43
17254;BME280;32542;52.832;13.816;2023-04-22T01:49:54;101468.06;;;21.59;44.46
17254;BME280;32542;52.832;13.816;2023-04-22T01:52:57;101454.75;;;21.59;44.51
17254;BME280;32542;52.832;13.816;2023-04-22T01:56:02;101451.22;;;21.58;44.45
17254;BME280;32542;52.832;13.816;2023-04-22T01:59:05;101448.59;;;21.57;44.60
17254;BME280;32542;52.832;13.816;2023-04-22T02:02:10;101451.53;;;21.51;44.60
17254;BME280;32542;52.832;13.816;2023-04-22T02:05:13;101447.97;;;21.50;44.69
17254;BME280;32542;52.832;13.816;2023-04-22T02:08:44;101448.84;;;21.51;44.63
17254;BME280;32542;52.832;13.816;2023-04-22T02:11:50;101446.16;;;21.52;44.73
17254;BME280;32542;52.832;13.816;2023-04-22T02:14:55;101437.13;;;21.55;44.68
17254;BME280;32542;52.832;13.816;2023-04-22T02:17:59;101440.69;;;21.55;44.65
17254;BME280;32542;52.832;13.816;2023-04-22T02:21:02;101438.00;;;21.55;44.62
17254;BME280;32542;52.832;13.816;2023-04-22T02:24:05;101441.56;;;21.56;44.64
17254;BME280;32542;52.832;13.816;2023-04-22T02:27:10;101425.56;;;21.56;44.70
17254;BME280;32542;52.832;13.816;2023-04-22T02:30:13;101430.91;;;21.56;44.60
17254;BME280;32542;52.832;13.816;2023-04-22T02:33:16;101416.69;;;21.55;44.71
17254;BME280;32542;52.832;13.816;2023-04-22T02:36:19;101423.81;;;21.55;44.72
17254;BME280;32542;52.832;13.816;2023-04-22T02:39:22;101415.16;;;21.50;44.75
17254;BME280;32542;52.832;13.816;2023-04-22T02:42:27;101412.59;;;21.47;44.82
17254;BME280;32542;52.832;13.816;2023-04-22T02:45:30;101408.22;;;21.46;44.87
17254;BME280;32542;52.832;13.816;2023-04-22T02:48:33;101399.28;;;21.47;44.91
17254;BME280;32542;52.832;13.816;2023-04-22T02:51:37;101402.75;;;21.49;44.81
17254;BME280;32542;52.832;13.816;2023-04-22T02:54:40;101397.41;;;21.49;44.87
17254;BME280;32542;52.832;13.816;2023-04-22T02:57:45;101400.88;;;21.51;44.68
17254;BME280;32542;52.832;13.816;2023-04-22T03:00:48;101388.38;;;21.53;44.72
17254;BME280;32542;52.832;13.816;2023-04-22T03:03:51;101393.69;;;21.53;44.75
17254;BME280;32542;52.832;13.816;2023-04-22T03:06:57;101391.97;;;21.52;44.62
17254;BME280;32542;52.832;13.816;2023-04-22T03:10:00;101391.03;;;21.53;44.64
17254;BME280;32542;52.832;13.816;2023-04-22T03:13:07;101385.69;;;21.53;44.75
17254;BME280;32542;52.832;13.816;2023-04-22T03:16:11;101393.75;;;21.51;44.75
17254;BME280;32542;52.832;13.816;2023-04-22T03:19:14;101392.00;;;21.50;44.82
17254;BME280;32542;52.832;13.816;2023-04-22T03:22:18;101392.97;;;21.49;44.80
17254;BME280;32542;52.832;13.816;2023-04-22T03:25:25;101388.56;;;21.48;44.75
17254;BME280;32542;52.832;13.816;2023-04-22T03:28:32;101387.75;;;21.46;44.96
17254;BME280;32542;52.832;13.816;2023-04-22T03:31:35;101389.50;;;21.47;44.89
17254;BME280;32542;52.832;13.816;2023-04-22T03:34:38;101390.31;;;21.49;44.83
17254;BME280;32542;52.832;13.816;2023-04-22T03:37:43;101388.56;;;21.48;44.81
17254;BME280;32542;52.832;13.816;2023-04-22T03:40:50;101385.06;;;21.46;44.92
17254;BME280;32542;52.832;13.816;2023-04-22T03:44:05;101393.94;;;21.47;44.83
17254;BME280;32542;52.832;13.816;2023-04-22T03:47:10;101397.56;;;21.46;44.98
17254;BME280;32542;52.832;13.816;2023-04-22T03:50:19;101392.22;;;21.46;44.92
17254;BME280;32542;52.832;13.816;2023-04-22T03:53:24;101393.94;;;21.47;44.92
17254;BME280;32542;52.832;13.816;2023-04-22T03:56:28;101386.91;;;21.46;44.86
17254;BME280;32542;52.832;13.816;2023-04-22T03:59:35;101393.06;;;21.46;44.93
17254;BME280;32542;52.832;13.816;2023-04-22T04:02:40;101392.16;;;21.47;44.93
17254;BME280;32542;52.832;13.816;2023-04-22T04:05:48;101392.16;;;21.47;44.85
17254;BME280;32542;52.832;13.816;2023-04-22T04:08:51;101393.84;;;21.50;44.76
17254;BME280;32542;52.832;13.816;2023-04-22T04:11:54;101402.63;;;21.52;44.78
17254;BME280;32542;52.832;13.816;2023-04-22T04:15:03;101399.97;;;21.52;44.82
17254;BME280;32542;52.832;13.816;2023-04-22T04:18:13;101393.69;;;21.53;44.74
17254;BME280;32542;52.832;13.816;2023-04-22T04:21:17;101391.00;;;21.54;44.74
17254;BME280;32542;52.832;13.816;2023-04-22T04:24:23;101398.91;;;21.56;44.77
17254;BME280;32542;52.832;13.816;2023-04-22T04:27:33;101397.13;;;21.56;44.67
17254;BME280;32542;52.832;13.816;2023-04-22T04:30:38;101389.97;;;21.57;44.75
17254;BME280;32542;52.832;13.816;2023-04-22T04:33:42;101389.94;;;21.58;44.78
17254;BME280;32542;52.832;13.816;2023-04-22T04:36:45;101393.44;;;21.59;44.75
17254;BME280;32542;52.832;13.816;2023-04-22T04:39:57;101396.09;;;21.59;44.70
17254;BME280;32542;52.832;13.816;2023-04-22T04:43:10;101390.78;;;21.59;44.64
17254;BME280;32542;52.832;13.816;2023-04-22T04:46:21;101393.44;;;21.59;44.72
17254;BME280;32542;52.832;13.816;2023-04-22T04:49:26;101400.53;;;21.60;44.72
17254;BME280;32542;52.832;13.816;2023-04-22T04:52:33;101400.53;;;21.60;44.72
17254;BME280;32542;52.832;13.816;2023-04-22T04:55:37;101399.59;;;21.61;44.68
17254;BME280;32542;52.832;13.816;2023-04-22T04:58:47;101403.97;;;21.62;44.62
17254;BME280;32542;52.832;13.816;2023-04-22T05:01:55;101397.78;;;21.61;44.70
17254;BME280;32542;52.832;13.816;2023-04-22T05:04:58;101401.31;;;21.62;44.66
17254;BME280;32542;52.832;13.816;2023-04-22T05:08:02;101403.13;;;21.61;44.71
17254;BME280;32542;52.832;13.816;2023-04-22T05:11:08;101401.31;;;21.62;44.65
17254;BME280;32542;52.832;13.816;2023-04-22T05:14:12;101403.97;;;21.62;44.66
17254;BME280;32542;52.832;13.816;2023-04-22T05:17:18;101406.66;;;21.62;44.63
17254;BME280;32542;52.832;13.816;2023-04-22T05:20:22;101398.72;;;21.60;44.74
17254;BME280;32542;52.832;13.816;2023-04-22T05:23:25;101399.53;;;21.62;44.62
17254;BME280;32542;52.832;13.816;2023-04-22T05:26:32;101395.06;;;21.63;44.75
17254;BME280;32542;52.832;13.816;2023-04-22T05:29:40;101390.66;;;21.62;44.64
17254;BME280;32542;52.832;13.816;2023-04-22T05:32:47;101387.06;;;21.63;44.85
17254;BME280;32542;52.832;13.816;2023-04-22T05:35:50;101387.13;;;21.61;44.75
17254;BME280;32542;52.832;13.816;2023-04-22T05:38:54;101391.59;;;21.61;44.84
17254;BME280;32542;52.832;13.816;2023-04-22T05:59:19;101383.66;;;21.59;44.85
17254;BME280;32542;52.832;13.816;2023-04-22T06:02:23;101386.28;;;21.61;44.84
17254;BME280;32542;52.832;13.816;2023-04-22T06:05:27;101386.28;;;21.61;44.77
17254;BME280;32542;52.832;13.816;2023-04-22T06:08:31;101380.88;;;21.62;44.84
17254;BME280;32542;52.832;13.816;2023-04-22T06:11:34;101391.53;;;21.62;44.93
17254;BME280;32542;52.832;13.816;2023-04-22T06:14:38;101386.19;;;21.62;44.84
17254;BME280;32542;52.832;13.816;2023-04-22T06:17:41;101389.75;;;21.63;44.84
17254;BME280;32542;52.832;13.816;2023-04-22T06:20:44;101392.44;;;21.61;44.83
17254;BME280;32542;52.832;13.816;2023-04-22T06:23:49;101389.78;;;21.61;44.81
17254;BME280;32542;52.832;13.816;2023-04-22T06:26:52;101391.59;;;21.61;44.89
17254;BME280;32542;52.832;13.816;2023-04-22T06:29:56;101387.13;;;21.61;44.86
17254;BME280;32542;52.832;13.816;2023-04-22T06:33:00;101388.94;;;21.61;44.82
17254;BME280;32542;52.832;13.816;2023-04-22T06:36:03;101376.53;;;21.60;44.85
17254;BME280;32542;52.832;13.816;2023-04-22T06:39:08;101388.94;;;21.61;44.94
17254;BME280;32542;52.832;13.816;2023-04-22T06:42:33;101388.06;;;21.60;44.90
17254;BME280;32542;52.832;13.816;2023-04-22T06:45:56;101392.44;;;21.61;44.91
17254;BME280;32542;52.832;13.816;2023-04-22T06:49:12;101387.06;;;21.63;44.96
17254;BME280;32542;52.832;13.816;2023-04-22T06:52:33;101388.88;;;21.62;44.84
17254;BME280;32542;52.832;13.816;2023-04-22T06:55:36;101379.94;;;21.63;44.88
17254;BME280;32542;52.832;13.816;2023-04-22T06:58:40;101389.75;;;21.63;44.95
17254;BME280;32542;52.832;13.816;2023-04-22T07:01:44;101385.31;;;21.62;44.88
17254;BME280;32542;52.832;13.816;2023-04-22T07:04:47;101383.53;;;21.62;44.93
17254;BME280;32542;52.832;13.816;2023-04-22T07:07:50;101384.41;;;21.63;44.97
17254;BME280;32542;52.832;13.816;2023-04-22T07:10:56;101380.00;;;21.62;45.05
17254;BME280;32542;52.832;13.816;2023-04-22T07:14:07;101374.66;;;21.62;45.00
17254;BME280;32542;52.832;13.816;2023-04-22T07:17:12;101364.94;;;21.61;44.94
17254;BME280;32542;52.832;13.816;2023-04-22T07:30:48;101363.09;;;21.63;44.82
17254;BME280;32542;52.832;13.816;2023-04-22T07:33:52;101364.94;;;21.61;44.72
17254;BME280;32542;52.832;13.816;2023-04-22T07:36:55;101366.13;;;21.54;43.84
17254;BME280;32542;52.832;13.816;2023-04-22T07:39:58;101362.91;;;21.46;42.27
17254;BME280;32542;52.832;13.816;2023-04-22T07:43:01;101358.03;;;21.35;41.10
17254;BME280;32542;52.832;13.816;2023-04-22T07:46:06;101364.59;;;21.27;40.74
17254;BME280;32542;52.832;13.816;2023-04-22T07:49:12;101360.38;;;21.21;40.30
17254;BME280;32542;52.832;13.816;2023-04-22T07:52:17;101360.63;;;21.15;40.04
17254;BME280;32542;52.832;13.816;2023-04-22T07:55:21;101359.88;;;21.12;40.00
17254;BME280;32542;52.832;13.816;2023-04-22T07:58:24;101355.34;;;21.14;40.78
17254;BME280;32542;52.832;13.816;2023-04-22T08:01:27;101357.88;;;21.17;41.13
17254;BME280;32542;52.832;13.816;2023-04-22T08:04:31;101358.56;;;21.22;41.18
17254;BME280;32542;52.832;13.816;2023-04-22T08:07:34;101351.22;;;21.28;41.13
17254;BME280;32542;52.832;13.816;2023-04-22T08:10:37;101348.34;;;21.33;41.58
17254;BME280;32542;52.832;13.816;2023-04-22T08:13:40;101342.84;;;21.37;41.52
17254;BME280;32542;52.832;13.816;2023-04-22T08:16:43;101340.91;;;21.41;41.58
17254;BME280;32542;52.832;13.816;2023-04-22T08:19:48;101342.53;;;21.45;41.59
17254;BME280;32542;52.832;13.816;2023-04-22T08:22:51;101342.41;;;21.48;41.84
17254;BME280;32542;52.832;13.816;2023-04-22T08:25:58;101336.94;;;21.51;42.05
17254;BME280;32542;52.832;13.816;2023-04-22T08:29:02;101337.72;;;21.53;42.23
17254;BME280;32542;52.832;13.816;2023-04-22T08:32:05;101329.69;;;21.54;42.41
17254;BME280;32542;52.832;13.816;2023-04-22T08:35:09;101323.34;;;21.57;42.46
17254;BME280;32542;52.832;13.816;2023-04-22T08:38:12;101324.16;;;21.59;42.60
17254;BME280;32542;52.832;13.816;2023-04-22T08:48:32;101307.16;;;21.61;42.96
17254;BME280;32542;52.832;13.816;2023-04-22T08:51:37;101309.78;;;21.63;42.99
17254;BME280;32542;52.832;13.816;2023-04-22T08:54:40;101309.78;;;21.63;43.18
17254;BME280;32542;52.832;13.816;2023-04-22T08:57:43;101296.47;;;21.63;43.17
17254;BME280;32542;52.832;13.816;2023-04-22T09:00:47;101307.13;;;21.63;43.40
17254;BME280;32542;52.832;13.816;2023-04-22T09:03:50;101309.78;;;21.63;43.45
17254;BME280;32542;52.832;13.816;2023-04-22T09:06:56;101299.13;;;21.63;43.57
17254;BME280;32542;52.832;13.816;2023-04-22T09:10:00;101300.84;;;21.64;43.70
17254;BME280;32542;52.832;13.816;2023-04-22T09:13:05;101310.59;;;21.65;43.76
17254;BME280;32542;52.832;13.816;2023-04-22T09:16:08;101308.75;;;21.65;43.91
17254;BME280;32542;52.832;13.816;2023-04-22T09:19:12;101302.59;;;21.65;43.95
17254;BME280;32542;52.832;13.816;2023-04-22T09:29:18;101289.97;;;21.68;43.95
17254;BME280;32542;52.832;13.816;2023-04-22T09:36:16;101288.13;;;21.70;44.05
17254;BME280;32542;52.832;13.816;2023-04-22T09:39:22;101284.53;;;21.71;44.17
17254;BME280;32542;52.832;13.816;2023-04-22T09:42:26;101278.31;;;21.71;44.20
17254;BME280;32542;52.832;13.816;2023-04-22T09:45:32;101284.53;;;21.71;44.21
17254;BME280;32542;52.832;13.816;2023-04-22T09:48:41;101272.03;;;21.72;44.19
17254;BME280;32542;52.832;13.816;2023-04-22T09:51:44;101272.03;;;21.72;44.22
17254;BME280;32542;52.832;13.816;2023-04-22T09:54:50;101267.59;;;21.72;44.31
17254;BME280;32542;52.832;13.816;2023-04-22T09:57:55;101257.81;;;21.73;44.38
17254;BME280;32542;52.832;13.816;2023-04-22T10:01:00;101256.00;;;21.73;44.44
17254;BME280;32542;52.832;13.816;2023-04-22T10:04:04;101254.19;;;21.74;44.49
17254;BME280;32542;52.832;13.816;2023-04-22T10:07:07;101251.47;;;21.75;44.48
17254;BME280;32542;52.832;13.816;2023-04-22T10:10:10;101241.66;;;21.76;44.53
17254;BME280;32542;52.832;13.816;2023-04-22T10:13:13;101235.47;;;21.75;44.54
17254;BME280;32542;52.832;13.816;2023-04-22T10:16:19;101244.31;;;21.76;44.47
17254;BME280;32542;52.832;13.816;2023-04-22T10:19:24;101230.16;;;21.75;44.52
17254;BME280;32542;52.832;13.816;2023-04-22T10:22:28;101230.16;;;21.75;44.55
17254;BME280;32542;52.832;13.816;2023-04-22T10:25:31;101223.94;;;21.75;44.58
17254;BME280;32542;52.832;13.816;2023-04-22T10:28:34;101225.66;;;21.76;44.53
17254;BME280;32542;52.832;13.816;2023-04-22T10:31:38;101219.47;;;21.75;44.47
17254;BME280;32542;52.832;13.816;2023-04-22T10:34:41;101222.16;;;21.75;44.67
17254;BME280;32542;52.832;13.816;2023-04-22T10:37:44;101223.88;;;21.76;44.78
17254;BME280;32542;52.832;13.816;2023-04-22T10:40:58;101210.53;;;21.76;45.46
17254;BME280;32542;52.832;13.816;2023-04-22T10:44:05;101209.63;;;21.77;47.55
17254;BME280;32542;52.832;13.816;2023-04-22T10:47:10;101220.19;;;21.79;49.69
17254;BME280;32542;52.832;13.816;2023-04-22T10:50:19;101211.19;;;21.82;51.04
17254;BME280;32542;52.832;13.816;2023-04-22T10:53:37;101203.16;;;21.83;51.24
17254;BME280;32542;52.832;13.816;2023-04-22T10:57:01;101205.81;;;21.83;50.68
17254;BME280;32542;52.832;13.816;2023-04-22T11:00:40;101196.03;;;21.84;49.30
17254;BME280;32542;52.832;13.816;2023-04-22T11:04:19;101188.13;;;21.82;47.89
17254;BME280;32542;52.832;13.816;2023-04-22T11:07:30;101174.72;;;21.84;47.99
17254;BME280;32542;52.832;13.816;2023-04-22T11:10:37;101172.97;;;21.83;48.24
17254;BME280;32542;52.832;13.816;2023-04-22T11:13:46;101171.16;;;21.83;48.38
17254;BME280;32542;52.832;13.816;2023-04-22T11:20:23;101166.72;;;21.84;48.26
17254;BME280;32542;52.832;13.816;2023-04-22T11:23:27;101158.72;;;21.84;48.38
17254;BME280;32542;52.832;13.816;2023-04-22T11:26:33;101159.59;;;21.84;48.09
17254;BME280;32542;52.832;13.816;2023-04-22T11:29:58;101157.72;;;21.86;47.40
17254;BME280;32542;52.832;13.816;2023-04-22T11:33:01;101152.38;;;21.86;47.39
17254;BME280;32542;52.832;13.816;2023-04-22T11:36:08;101159.44;;;21.87;47.41
17254;BME280;32542;52.832;13.816;2023-04-22T11:39:11;101150.50;;;21.88;47.48
17254;BME280;32542;52.832;13.816;2023-04-22T11:42:19;101143.34;;;21.89;47.42
17254;BME280;32542;52.832;13.816;2023-04-22T11:45:23;101144.22;;;21.89;47.43
17254;BME280;32542;52.832;13.816;2023-04-22T11:48:26;101153.09;;;21.90;47.45
17254;BME280;32542;52.832;13.816;2023-04-22T11:51:31;101145.00;;;21.91;47.34
17254;BME280;32542;52.832;13.816;2023-04-22T11:54:35;101145.00;;;21.91;47.13
17254;BME280;32542;52.832;13.816;2023-04-22T11:57:38;101160.16;;;21.91;47.25
17254;BME280;32542;52.832;13.816;2023-04-22T12:00:42;101149.56;;;21.89;47.12
17254;BME280;32542;52.832;13.816;2023-04-22T12:03:45;101144.16;;;21.91;46.99
17254;BME280;32542;52.832;13.816;2023-04-22T12:06:52;101152.16;;;21.91;47.10
17254;BME280;32542;52.832;13.816;2023-04-22T12:09:55;101143.31;;;21.90;47.09
17254;BME280;32542;52.832;13.816;2023-04-22T12:12:59;101145.97;;;21.90;47.07
17254;BME280;32542;52.832;13.816;2023-04-22T12:16:03;101129.00;;;21.91;46.95
17254;BME280;32542;52.832;13.816;2023-04-22T12:19:07;101134.34;;;21.91;47.00
17254;BME280;32542;52.832;13.816;2023-04-22T12:22:11;101121.97;;;21.90;46.99
17254;BME280;32542;52.832;13.816;2023-04-22T12:25:17;101117.56;;;21.89;46.93
17254;BME280;32542;52.832;13.816;2023-04-22T12:28:21;101106.88;;;21.89;46.87
17254;BME280;32542;52.832;13.816;2023-04-22T12:31:24;101105.19;;;21.88;46.94
17254;BME280;32542;52.832;13.816;2023-04-22T12:34:27;101095.34;;;21.89;47.04
17254;BME280;32542;52.832;13.816;2023-04-22T12:37:32;101101.63;;;21.88;46.86
17254;BME280;32542;52.832;13.816;2023-04-22T12:40:35;101106.97;;;21.88;46.89
17254;BME280;32542;52.832;13.816;2023-04-22T12:43:37;101084.78;;;21.87;46.79
17254;BME280;32542;52.832;13.816;2023-04-22T12:46:40;101073.19;;;21.88;46.77
17254;BME280;32542;52.832;13.816;2023-04-22T12:49:44;101083.84;;;21.88;46.77
17254;BME280;32542;52.832;13.816;2023-04-22T12:52:49;101090.88;;;21.89;46.68
17254;BME280;32542;52.832;13.816;2023-04-22T12:55:52;101082.91;;;21.89;46.70
17254;BME280;32542;52.832;13.816;2023-04-22T12:58:55;101073.19;;;21.88;46.71
17254;BME280;32542;52.832;13.816;2023-04-22T13:02:03;101074.91;;;21.89;46.66
17254;BME280;32542;52.832;13.816;2023-04-22T13:05:07;101066.91;;;21.89;46.59
17254;BME280;32542;52.832;13.816;2023-04-22T13:08:12;101062.53;;;21.88;46.62
17254;BME280;32542;52.832;13.816;2023-04-22T13:11:14;101062.53;;;21.88;46.55
17254;BME280;32542;52.832;13.816;2023-04-22T13:14:18;101067.91;;;21.87;46.54
17254;BME280;32542;52.832;13.816;2023-04-22T13:17:20;101058.97;;;21.88;46.66
17254;BME280;32542;52.832;13.816;2023-04-22T13:20:23;101058.97;;;21.88;46.70
17254;BME280;32542;52.832;13.816;2023-04-22T13:23:28;101043.91;;;21.87;46.59
17254;BME280;32542;52.832;13.816;2023-04-22T13:26:31;101042.97;;;21.88;46.66
17254;BME280;32542;52.832;13.816;2023-04-22T13:29:34;101047.44;;;21.87;46.44
17254;BME280;32542;52.832;13.816;2023-04-22T13:32:37;101047.44;;;21.87;46.22
17254;BME280;32542;52.832;13.816;2023-04-22T13:35:40;101031.44;;;21.87;46.22
17254;BME280;32542;52.832;13.816;2023-04-22T13:38:44;101035.91;;;21.87;46.26
17254;BME280;32542;52.832;13.816;2023-04-22T13:41:48;101034.13;;;21.87;46.33
17254;BME280;32542;52.832;13.816;2023-04-22T13:44:50;101034.19;;;21.86;46.27
17254;BME280;32542;52.832;13.816;2023-04-22T13:47:53;101028.88;;;21.86;46.30
17254;BME280;32542;52.832;13.816;2023-04-22T13:50:56;101021.78;;;21.85;46.41
17254;BME280;32542;52.832;13.816;2023-04-22T13:54:00;101024.44;;;21.85;46.40
17254;BME280;32542;52.832;13.816;2023-04-22T13:57:04;101020.94;;;21.84;46.45
17254;BME280;32542;52.832;13.816;2023-04-22T14:00:07;101018.28;;;21.84;46.42
17254;BME280;32542;52.832;13.816;2023-04-22T14:03:13;101003.25;;;21.82;46.43
17254;BME280;32542;52.832;13.816;2023-04-22T14:06:17;101013.88;;;21.83;46.36
17254;BME280;32542;52.832;13.816;2023-04-22T14:09:21;101008.53;;;21.83;46.14
17254;BME280;32542;52.832;13.816;2023-04-22T14:12:24;101003.22;;;21.83;46.23
17254;BME280;32542;52.832;13.816;2023-04-22T14:15:27;100985.50;;;21.82;45.86
17254;BME280;32542;52.832;13.816;2023-04-22T14:18:30;100997.88;;;21.83;45.94
17254;BME280;32542;52.832;13.816;2023-04-22T14:21:36;100987.22;;;21.83;46.01
17254;BME280;32542;52.832;13.816;2023-04-22T14:24:40;100985.50;;;21.82;46.06
17254;BME280;32542;52.832;13.816;2023-04-22T14:27:43;100984.66;;;21.80;45.46
17254;BME280;32542;52.832;13.816;2023-04-22T14:30:46;100980.28;;;21.79;44.46
17254;BME280;32542;52.832;13.816;2023-04-22T14:33:49;100978.53;;;21.78;44.41
17254;BME280;32542;52.832;13.816;2023-04-22T14:36:52;100983.84;;;21.78;44.01
17254;BME280;32542;52.832;13.816;2023-04-22T14:39:57;100979.41;;;21.78;44.54
17254;BME280;32542;52.832;13.816;2023-04-22T14:43:01;100962.69;;;21.75;44.51
17254;BME280;32542;52.832;13.816;2023-04-22T14:46:05;100964.41;;;21.76;44.04
17254;BME280;32542;52.832;13.816;2023-04-22T14:49:08;100967.16;;;21.74;44.21
17254;BME280;32542;52.832;13.816;2023-04-22T14:52:11;100967.16;;;21.74;44.04
17254;BME280;32542;52.832;13.816;2023-04-22T14:55:16;100952.03;;;21.75;43.85
17254;BME280;32542;52.832;13.816;2023-04-22T14:58:24;100953.91;;;21.73;42.83
17254;BME280;32542;52.832;13.816;2023-04-22T15:01:32;100953.06;;;21.72;42.51
17254;BME280;32542;52.832;13.816;2023-04-22T15:04:35;100946.00;;;21.71;42.00
17254;BME280;32542;52.832;13.816;2023-04-22T15:07:38;100945.13;;;21.71;41.88
17254;BME280;32542;52.832;13.816;2023-04-22T15:10:42;100941.81;;;21.66;38.99
17254;BME280;32542;52.832;13.816;2023-04-22T15:13:45;100939.25;;;21.64;38.75
17254;BME280;32542;52.832;13.816;2023-04-22T15:16:48;100945.44;;;21.65;39.21
17254;BME280;32542;52.832;13.816;2023-04-22T15:19:51;100933.03;;;21.64;40.63
17254;BME280;32542;52.832;13.816;2023-04-22T15:22:59;100940.94;;;21.65;41.24
17254;BME280;32542;52.832;13.816;2023-04-22T15:26:03;100941.81;;;21.66;41.22
17254;BME280;32542;52.832;13.816;2023-04-22T15:29:06;100931.16;;;21.66;41.13
17254;BME280;32542;52.832;13.816;2023-04-22T15:32:09;100932.91;;;21.67;40.64
17254;BME280;32542;52.832;13.816;2023-04-22T15:35:12;100927.56;;;21.67;40.82
17254;BME280;32542;52.832;13.816;2023-04-22T15:38:15;100923.16;;;21.66;40.67
17254;BME280;32542;52.832;13.816;2023-04-22T15:41:20;100916.91;;;21.67;40.48
17254;BME280;32542;52.832;13.816;2023-04-22T15:44:22;100922.25;;;21.67;40.41
17254;BME280;32542;52.832;13.816;2023-04-22T15:47:26;100918.78;;;21.65;40.06
17254;BME280;32542;52.832;13.816;2023-04-22T15:50:29;100913.47;;;21.65;40.53
17254;BME280;32542;52.832;13.816;2023-04-22T15:53:32;100917.03;;;21.64;41.43
17254;BME280;32542;52.832;13.816;2023-04-22T15:56:37;100921.38;;;21.66;41.01
17254;BME280;32542;52.832;13.816;2023-04-22T15:59:39;100911.56;;;21.67;41.12
17254;BME280;32542;52.832;13.816;2023-04-22T16:02:43;100904.41;;;21.67;40.93
17254;BME280;32542;52.832;13.816;2023-04-22T16:05:47;100899.09;;;21.67;40.37
17254;BME280;32542;52.832;13.816;2023-04-22T16:08:50;100900.84;;;21.68;40.19
17254;BME280;32542;52.832;13.816;2023-04-22T16:11:54;100894.63;;;21.68;40.29
17254;BME280;32542;52.832;13.816;2023-04-22T16:14:57;100901.75;;;21.67;39.99
17254;BME280;32542;52.832;13.816;2023-04-22T16:18:00;100886.56;;;21.69;39.20
17254;BME280;32542;52.832;13.816;2023-04-22T16:21:03;100890.25;;;21.67;39.54
17254;BME280;32542;52.832;13.816;2023-04-22T16:24:06;100881.31;;;21.68;39.38
17254;BME280;32542;52.832;13.816;2023-04-22T16:27:11;100884.06;;;21.66;39.28
17254;BME280;32542;52.832;13.816;2023-04-22T16:30:17;100879.59;;;21.67;39.25
17254;BME280;32542;52.832;13.816;2023-04-22T16:33:20;100874.25;;;21.67;39.20
17254;BME280;32542;52.832;13.816;2023-04-22T16:36:23;100874.31;;;21.65;39.39
17254;BME280;32542;52.832;13.816;2023-04-22T16:39:26;100876.16;;;21.65;38.72
17254;BME280;32542;52.832;13.816;2023-04-22T16:42:31;100863.75;;;21.64;38.58
17254;BME280;32542;52.832;13.816;2023-04-22T16:45:33;100863.75;;;21.64;38.68